createdAt,value
2019-04-22T00:00:53.761Z,1.00
2019-04-22T00:03:27.410Z,1.00
2019-04-22T00:06:12.962Z,1.00
2019-04-22T00:08:54.235Z,1.00
2019-04-22T00:11:27.278Z,1.00
2019-04-22T00:13:52.283Z,1.00
2019-04-22T00:16:27.424Z,1.00
2019-04-22T00:21:26.360Z,1.00
2019-04-22T00:23:54.738Z,1.00
2019-04-22T00:26:23.436Z,1.00
2019-04-22T00:28:58.262Z,1.00
2019-04-22T00:31:49.487Z,1.00
2019-04-22T00:34:16.666Z,1.00
2019-04-22T00:36:54.577Z,1.00
2019-04-22T00:39:28.381Z,1.00
2019-04-22T00:41:56.477Z,1.00
2019-04-22T00:44:31.822Z,1.00
2019-04-22T00:47:01.808Z,1.00
2019-04-22T00:52:03.669Z,1.00
2019-04-22T00:54:28.527Z,1.00
2019-04-22T00:57:01.447Z,1.00
2019-04-22T00:59:29.293Z,1.00
2019-04-22T01:02:02.018Z,1.00
2019-04-22T01:04:40.915Z,1.00
2019-04-22T01:07:04.087Z,1.00
2019-04-22T01:09:38.952Z,1.00
2019-04-22T01:12:07.637Z,1.00
2019-04-22T01:14:37.256Z,1.00
2019-04-22T01:17:06.468Z,1.00
2019-04-22T01:19:45.189Z,1.00
2019-04-22T01:22:12.888Z,1.00
2019-04-22T01:24:37.018Z,1.00
2019-04-22T01:27:03.219Z,1.60
2019-04-22T01:29:30.417Z,1.80
2019-04-22T01:31:50.911Z,2.00
2019-04-22T01:34:36.159Z,2.50
2019-04-22T01:37:07.980Z,2.80
2019-04-22T01:39:50.000Z,3.50
2019-04-22T01:42:18.676Z,3.60
2019-04-22T01:44:45.370Z,4.60
2019-04-22T01:47:29.894Z,4.40
2019-04-22T01:49:52.758Z,4.30
2019-04-22T01:52:22.102Z,4.40
2019-04-22T01:54:56.850Z,4.40
2019-04-22T01:57:24.188Z,4.00
2019-04-22T01:59:45.709Z,4.20
2019-04-22T02:02:28.511Z,4.00
2019-04-22T02:04:59.623Z,3.90
2019-04-22T02:07:29.414Z,3.70
2019-04-22T02:10:00.430Z,4.20
2019-04-22T02:12:30.799Z,4.40
2019-04-22T02:14:57.900Z,3.90
2019-04-22T02:17:31.578Z,5.10
2019-04-22T02:20:05.118Z,5.40
2019-04-22T02:22:50.050Z,6.10
2019-04-22T02:25:13.595Z,6.00
2019-04-22T02:27:43.217Z,6.30
2019-04-22T02:30:08.488Z,6.00
2019-04-22T02:32:49.137Z,6.00
2019-04-22T02:35:18.240Z,6.90
2019-04-22T02:37:40.618Z,6.70
2019-04-22T02:40:09.690Z,6.00
2019-04-22T02:42:32.118Z,5.80
2019-04-22T02:45:07.125Z,5.70
2019-04-22T02:47:42.232Z,5.50
2019-04-22T02:50:08.905Z,5.00
2019-04-22T02:55:15.536Z,5.10
2019-04-22T02:57:49.415Z,5.20
2019-04-22T03:00:27.360Z,5.00
2019-04-22T03:03:04.044Z,4.90
2019-04-22T03:05:27.818Z,4.90
2019-04-22T03:13:09.590Z,6.60
2019-04-22T03:15:16.943Z,6.10
2019-04-22T03:17:53.926Z,7.10
2019-04-22T03:20:22.131Z,5.80
2019-04-22T03:23:00.152Z,5.70
2019-04-22T03:25:55.639Z,6.40
2019-04-22T03:28:08.671Z,6.20
2019-04-22T03:30:47.512Z,6.80
2019-04-22T03:43:13.739Z,7.40
2019-04-22T03:50:38.798Z,7.30
2019-04-22T03:55:35.032Z,6.90
2019-04-22T04:13:12.221Z,7.10
2019-04-22T04:15:46.237Z,8.50
2019-04-22T04:20:53.800Z,8.10
2019-04-22T04:23:21.879Z,9.10
2019-04-22T04:28:29.410Z,8.70
2019-04-22T04:30:42.454Z,8.50
2019-04-22T04:33:18.085Z,8.80
2019-04-22T04:38:13.067Z,9.40
2019-04-22T04:41:06.122Z,9.40
2019-04-22T04:43:18.823Z,9.40
2019-04-22T04:45:54.710Z,8.90
2019-04-22T04:48:21.047Z,9.30
2019-04-22T04:50:58.573Z,9.00
2019-04-22T04:53:20.503Z,9.00
2019-04-22T04:55:51.724Z,9.00
2019-04-22T04:58:37.176Z,9.00
2019-04-22T05:00:57.174Z,9.00
2019-04-22T05:03:32.711Z,8.90
2019-04-22T05:08:40.758Z,8.90
2019-04-22T05:11:01.033Z,8.40
2019-04-22T05:13:37.025Z,7.90
2019-04-22T05:16:11.475Z,8.00
2019-04-22T05:18:33.092Z,8.40
2019-04-22T05:21:13.993Z,7.70
2019-04-22T05:23:30.430Z,7.50
2019-04-22T05:26:02.927Z,7.50
2019-04-22T05:28:24.390Z,6.80
2019-04-22T05:30:56.811Z,7.10
2019-04-22T05:33:33.050Z,7.40
2019-04-22T05:36:02.192Z,6.70
2019-04-22T05:38:33.420Z,6.60
2019-04-22T05:40:56.478Z,6.50
2019-04-22T05:43:29.477Z,7.60
2019-04-22T05:46:00.484Z,7.20
2019-04-22T05:48:35.460Z,7.00
2019-04-22T05:51:04.503Z,7.00
2019-04-22T05:53:33.849Z,7.10
2019-04-22T05:56:10.089Z,7.00
2019-04-22T05:58:38.137Z,5.90
2019-04-22T06:01:36.691Z,5.80
2019-04-22T06:03:42.564Z,5.90
2019-04-22T06:06:11.998Z,6.30
2019-04-22T06:08:44.431Z,5.90
2019-04-22T06:11:16.884Z,5.70
2019-04-22T06:13:38.662Z,4.40
2019-04-22T06:16:20.549Z,4.30
2019-04-22T06:18:47.276Z,5.50
2019-04-22T06:21:22.394Z,6.10
2019-04-22T06:23:58.497Z,3.90
2019-04-22T06:26:45.756Z,6.00
2019-04-22T06:28:54.802Z,4.90
2019-04-22T06:31:26.779Z,5.00
2019-04-22T06:33:56.442Z,4.50
2019-04-22T06:36:24.515Z,3.40
2019-04-22T06:38:51.408Z,4.50
2019-04-22T06:41:43.554Z,3.70
2019-04-22T06:44:01.070Z,2.80
2019-04-22T06:46:30.004Z,2.90
2019-04-22T06:49:00.721Z,4.10
2019-04-22T06:51:32.481Z,2.40
2019-04-22T06:53:58.043Z,3.50
2019-04-22T06:56:27.461Z,7.60
2019-04-22T06:58:57.711Z,7.80
2019-04-22T07:01:28.680Z,7.30
2019-04-22T07:03:56.976Z,8.50
2019-04-22T07:06:37.255Z,7.60
2019-04-22T07:09:22.064Z,7.60
2019-04-22T07:11:30.703Z,7.40
2019-04-22T07:16:39.301Z,5.50
2019-04-22T07:19:20.265Z,5.00
2019-04-22T07:21:39.848Z,5.60
2019-04-22T07:24:22.783Z,5.70
2019-04-22T07:26:37.334Z,5.70
2019-04-22T07:29:09.062Z,5.90
2019-04-22T07:31:43.147Z,5.30
2019-04-22T07:34:16.422Z,4.60
2019-04-22T07:36:59.194Z,3.80
2019-04-22T07:39:09.816Z,4.20
2019-04-22T07:46:54.676Z,4.40
2019-04-22T07:49:35.230Z,3.30
2019-04-22T07:51:45.665Z,3.50
2019-04-22T07:54:14.379Z,3.40
2019-04-22T07:56:48.647Z,4.00
2019-04-22T07:59:18.556Z,2.70
2019-04-22T08:01:42.216Z,3.40
2019-04-22T08:04:23.163Z,3.10
2019-04-22T08:06:52.317Z,2.90
2019-04-22T08:09:24.192Z,3.70
2019-04-22T08:14:22.455Z,2.50
2019-04-22T08:17:01.582Z,3.50
2019-04-22T08:19:27.533Z,3.10
2019-04-22T08:21:53.305Z,3.80
2019-04-22T08:24:23.908Z,3.50
2019-04-22T08:26:56.098Z,2.70
2019-04-22T08:29:38.106Z,3.30
2019-04-22T08:31:54.796Z,2.60
2019-04-22T08:34:24.919Z,2.50
2019-04-22T08:37:34.295Z,2.50
2019-04-22T08:39:32.703Z,2.50
2019-04-22T08:42:16.200Z,1.80
2019-04-22T08:44:51.993Z,3.00
2019-04-22T08:49:32.185Z,1.70
2019-04-22T08:52:01.296Z,1.00
2019-04-22T08:57:07.206Z,1.10
2019-04-22T08:59:28.163Z,2.50
2019-04-22T09:02:08.621Z,2.70
2019-04-22T09:04:34.706Z,1.20
2019-04-22T09:09:37.906Z,1.10
2019-04-22T09:12:07.659Z,1.20
2019-04-22T09:14:43.458Z,1.00
2019-04-22T09:17:13.470Z,1.00
2019-04-22T09:19:34.052Z,1.00
2019-04-22T09:22:13.555Z,1.00
2019-04-22T09:24:43.060Z,1.00
2019-04-22T09:27:22.664Z,1.00
2019-04-22T09:32:23.824Z,1.00
2019-04-22T09:34:57.613Z,1.00
2019-04-22T09:37:20.708Z,1.00
2019-04-22T09:39:53.478Z,1.00
2019-04-22T09:42:21.965Z,1.00
2019-04-22T09:44:47.330Z,1.00
2019-04-22T09:47:19.157Z,1.00
2019-04-22T09:50:03.759Z,1.00
2019-04-22T09:52:15.016Z,1.00
2019-04-22T09:54:53.067Z,1.00
2019-04-22T09:57:21.681Z,1.00
2019-04-22T09:59:57.475Z,1.00
2019-04-22T10:02:31.757Z,1.00
2019-04-22T10:04:54.067Z,1.00
2019-04-22T10:07:25.994Z,1.00
2019-04-22T10:12:25.304Z,1.00
2019-04-22T10:14:55.506Z,1.00
2019-04-22T10:17:25.176Z,1.00
2019-04-22T10:19:53.054Z,1.00
2019-04-22T10:25:01.738Z,1.00
2019-04-22T10:27:26.141Z,1.00
2019-04-22T10:29:59.835Z,1.00
2019-04-22T10:32:33.398Z,1.00
2019-04-22T10:34:58.764Z,1.00
2019-04-22T10:37:23.859Z,1.00
2019-04-22T10:39:57.514Z,1.00
2019-04-22T10:42:25.101Z,1.00
2019-04-22T10:44:55.459Z,1.00
2019-04-22T10:47:25.698Z,1.00
2019-04-22T10:49:56.291Z,1.00
2019-04-22T10:52:25.639Z,1.00
2019-04-22T10:54:55.799Z,1.00
2019-04-22T10:57:25.619Z,1.00
2019-04-22T10:59:54.725Z,1.00
2019-04-22T11:02:23.913Z,1.00
2019-04-22T11:04:54.343Z,1.00
2019-04-22T11:07:31.226Z,1.00
2019-04-22T11:10:01.154Z,1.00
2019-04-22T11:12:29.975Z,1.00
2019-04-22T11:14:56.100Z,1.00
2019-04-22T11:17:26.020Z,1.00
2019-04-22T11:19:55.352Z,1.00
2019-04-22T11:22:28.544Z,1.00
2019-04-22T11:24:58.961Z,1.00
2019-04-22T11:27:25.682Z,1.00
2019-04-22T11:29:55.392Z,1.00
2019-04-22T11:32:24.632Z,1.00
2019-04-22T11:34:53.964Z,1.00
2019-04-22T11:37:23.176Z,1.00
2019-04-22T11:40:02.155Z,1.00
2019-04-22T11:42:23.898Z,1.00
2019-04-22T11:44:53.117Z,1.00
2019-04-22T11:47:23.392Z,1.00
2019-04-22T11:49:52.484Z,1.00
2019-04-22T11:52:22.570Z,1.00
2019-04-22T11:54:52.915Z,1.00
2019-04-22T11:57:23.346Z,1.00
2019-04-22T11:59:52.627Z,1.00
2019-04-22T12:02:23.382Z,1.00
2019-04-22T12:04:54.023Z,1.00
2019-04-22T12:07:23.445Z,1.00
2019-04-22T12:09:53.357Z,1.00
2019-04-22T12:12:23.612Z,1.00
2019-04-22T12:14:54.305Z,1.00
2019-04-22T12:17:24.225Z,1.00
2019-04-22T12:19:53.312Z,1.00
2019-04-22T12:22:23.249Z,1.00
2019-04-22T12:24:52.461Z,1.00
2019-04-22T12:27:24.020Z,1.00
2019-04-22T12:29:53.166Z,1.00
2019-04-22T12:32:23.281Z,1.00
2019-04-22T12:34:53.365Z,1.00
2019-04-22T12:37:31.602Z,1.00
2019-04-22T12:39:56.450Z,1.00
2019-04-22T12:42:23.948Z,1.00
2019-04-22T12:44:54.095Z,1.00
2019-04-22T12:47:24.316Z,1.00
2019-04-22T12:50:03.635Z,1.00
2019-04-22T12:52:32.378Z,1.00
2019-04-22T12:54:55.193Z,1.00
2019-04-22T12:57:24.866Z,1.00
2019-04-22T12:59:55.328Z,1.00
2019-04-22T13:02:25.188Z,1.00
2019-04-22T13:04:54.380Z,1.00
2019-04-22T13:07:24.105Z,1.00
2019-04-22T13:09:54.946Z,1.00
2019-04-22T13:12:24.845Z,1.00
2019-04-22T13:14:54.845Z,1.00
2019-04-22T13:17:24.978Z,1.00
2019-04-22T13:19:54.199Z,1.00
2019-04-22T13:22:24.958Z,1.00
2019-04-22T13:24:54.180Z,1.00
2019-04-22T13:27:24.768Z,1.00
2019-04-22T13:29:55.076Z,1.00
2019-04-22T13:32:25.085Z,1.00
2019-04-22T13:34:57.938Z,1.00
2019-04-22T13:37:25.314Z,1.00
2019-04-22T13:39:54.791Z,1.00
2019-04-22T13:42:25.337Z,1.00
2019-04-22T13:44:55.854Z,1.00
2019-04-22T13:50:32.927Z,1.00
2019-04-22T13:52:58.510Z,1.00
2019-04-22T13:54:14.446Z,1.00
2019-04-22T13:55:25.435Z,1.00
2019-04-22T13:57:47.094Z,1.00
2019-04-22T14:00:00.156Z,1.00
2019-04-22T14:02:46.621Z,1.00
2019-04-22T14:05:18.920Z,1.00
2019-04-22T14:07:49.004Z,1.00
2019-04-22T14:10:20.701Z,1.00
2019-04-22T14:12:50.857Z,1.00
2019-04-22T14:15:20.236Z,1.00
2019-04-22T14:17:49.247Z,1.00
2019-04-22T14:20:20.333Z,1.00
2019-04-22T14:22:50.459Z,1.00
2019-04-22T14:25:20.718Z,1.00
2019-04-22T14:27:56.564Z,1.00
2019-04-22T14:30:21.253Z,1.00
2019-04-22T14:32:51.222Z,1.00
2019-04-22T14:35:22.880Z,1.00
2019-04-22T14:37:52.266Z,1.00
2019-04-22T14:40:22.970Z,1.00
2019-04-22T14:43:17.476Z,1.00
2019-04-22T14:45:58.023Z,1.00
2019-04-22T14:48:20.058Z,1.00
2019-04-22T14:50:45.289Z,1.00
2019-04-22T14:53:13.350Z,1.00
2019-04-22T14:55:30.723Z,1.00
2019-04-22T14:57:57.035Z,1.00
2019-04-22T15:00:27.216Z,1.00
2019-04-22T15:02:57.544Z,1.00
2019-04-22T15:05:28.251Z,1.00
2019-04-22T15:07:57.464Z,1.00
2019-04-22T15:10:28.112Z,1.00
2019-04-22T15:12:59.191Z,1.00
2019-04-22T15:15:43.405Z,1.00
2019-04-22T15:18:28.326Z,1.00
2019-04-22T15:21:04.853Z,1.00
2019-04-22T15:23:34.810Z,1.00
2019-04-22T15:26:04.576Z,1.00
2019-04-22T15:28:34.268Z,1.00
2019-04-22T15:31:05.764Z,1.00
2019-04-22T15:33:35.308Z,1.00
2019-04-22T15:36:05.721Z,1.00
2019-04-22T15:38:36.322Z,1.00
2019-04-22T15:41:06.980Z,1.00
2019-04-22T15:43:37.113Z,1.00
2019-04-22T15:46:07.640Z,1.00
2019-04-22T15:48:37.748Z,1.00
2019-04-22T15:51:06.943Z,1.00
2019-04-22T15:53:36.104Z,1.00
2019-04-22T15:56:05.638Z,1.00
2019-04-22T15:58:35.591Z,1.00
2019-04-22T16:01:13.005Z,1.00
2019-04-22T16:03:36.841Z,1.00
2019-04-22T16:06:06.204Z,1.00
2019-04-22T16:08:38.757Z,1.00
2019-04-22T16:11:06.256Z,1.00
2019-04-22T16:13:38.048Z,1.00
2019-04-22T16:16:06.910Z,1.00
2019-04-22T16:18:36.349Z,1.00
2019-04-22T16:21:06.962Z,1.00
2019-04-22T16:23:46.614Z,1.00
2019-04-22T16:26:24.374Z,1.00
2019-04-22T16:28:55.970Z,1.00
2019-04-22T16:31:25.063Z,1.00
2019-04-22T16:33:54.544Z,1.00
2019-04-22T16:36:24.892Z,1.00
2019-04-22T16:38:55.433Z,1.00
2019-04-22T16:41:24.658Z,1.00
2019-04-22T16:43:54.277Z,1.00
2019-04-22T16:46:23.586Z,1.00
2019-04-22T16:48:53.791Z,1.00
2019-04-22T16:51:24.301Z,1.00
2019-04-22T16:53:53.991Z,1.00
2019-04-22T16:56:22.968Z,1.00
2019-04-22T16:58:52.693Z,1.00
2019-04-22T17:01:40.917Z,1.00
2019-04-22T17:04:20.664Z,1.00
2019-04-22T17:06:49.850Z,1.00
2019-04-22T17:09:19.699Z,1.00
2019-04-22T17:11:49.861Z,1.00
2019-04-22T17:14:29.654Z,1.00
2019-04-22T17:16:50.623Z,1.00
2019-04-22T17:19:21.525Z,1.00
2019-04-22T17:21:50.381Z,1.00
2019-04-22T17:24:19.533Z,1.00
2019-04-22T17:26:50.440Z,1.00
2019-04-22T17:29:20.913Z,1.00
2019-04-22T17:31:56.680Z,1.00
2019-04-22T17:34:21.319Z,1.00
2019-04-22T17:36:51.000Z,1.00
2019-04-22T17:39:31.512Z,1.00
2019-04-22T17:42:08.281Z,1.00
2019-04-22T17:44:49.383Z,1.00
2019-04-22T17:47:25.888Z,1.00
2019-04-22T17:50:08.174Z,1.00
2019-04-22T17:52:36.445Z,1.00
2019-04-22T17:55:04.544Z,1.00
2019-04-22T17:57:32.677Z,1.00
2019-04-22T18:00:07.034Z,1.00
2019-04-22T18:02:37.676Z,1.00
2019-04-22T18:04:56.264Z,1.00
2019-04-22T18:07:41.287Z,1.00
2019-04-22T18:10:27.081Z,1.00
2019-04-22T18:12:42.323Z,1.00
2019-04-22T18:15:14.922Z,1.00
2019-04-22T18:17:46.508Z,1.00
2019-04-22T18:20:10.194Z,1.00
2019-04-22T18:22:36.936Z,1.00
2019-04-22T18:25:07.751Z,1.00
2019-04-22T18:27:53.991Z,1.00
2019-04-22T18:30:09.210Z,1.00
2019-04-22T18:32:43.812Z,1.00
2019-04-22T18:35:16.620Z,1.00
2019-04-22T18:37:49.952Z,1.00
2019-04-22T18:40:18.113Z,1.00
2019-04-22T18:42:52.445Z,1.00
2019-04-22T18:45:35.795Z,1.00
2019-04-22T18:47:45.471Z,1.00
2019-04-22T18:50:30.716Z,1.00
2019-04-22T18:53:17.094Z,1.00
2019-04-22T18:55:44.345Z,1.00
2019-04-22T18:58:18.042Z,1.00
2019-04-22T19:00:36.339Z,1.00
2019-04-22T19:03:15.614Z,1.00
2019-04-22T19:06:02.557Z,1.00
2019-04-22T19:08:29.157Z,1.00
2019-04-22T19:16:19.917Z,1.00
2019-04-22T19:18:37.499Z,1.00
2019-04-22T19:21:07.960Z,1.00
2019-04-22T19:23:31.971Z,1.00
2019-04-22T19:26:08.193Z,1.00
2019-04-22T19:28:42.380Z,1.00
2019-04-22T19:31:13.771Z,1.00
2019-04-22T19:33:39.989Z,1.00
2019-04-22T19:36:12.980Z,1.00
2019-04-22T19:38:30.041Z,1.00
2019-04-22T19:41:18.574Z,1.00
2019-04-22T19:43:40.994Z,1.00
2019-04-22T19:46:07.460Z,1.00
2019-04-22T19:48:45.742Z,1.00
2019-04-22T19:51:17.205Z,1.00
2019-04-22T19:53:46.663Z,1.00
2019-04-22T19:56:08.218Z,1.00
2019-04-22T19:58:42.599Z,1.00
2019-04-22T20:01:30.855Z,1.00
2019-04-22T20:04:16.542Z,1.00
2019-04-22T20:06:41.307Z,1.00
2019-04-22T20:09:24.445Z,1.00
2019-04-22T20:11:43.734Z,1.00
2019-04-22T20:14:19.949Z,1.00
2019-04-22T20:16:41.319Z,1.00
2019-04-22T20:19:25.440Z,1.00
2019-04-22T20:21:54.715Z,1.00
2019-04-22T20:24:06.741Z,1.00
2019-04-22T20:26:58.922Z,1.00
2019-04-22T20:29:27.156Z,1.00
2019-04-22T20:31:54.075Z,1.00
2019-04-22T20:34:28.311Z,1.00
2019-04-22T20:39:28.804Z,1.00
2019-04-22T20:42:14.838Z,1.00
2019-04-22T20:44:32.275Z,1.00
2019-04-22T20:46:56.122Z,1.00
2019-04-22T20:49:31.132Z,1.00
2019-04-22T20:54:28.938Z,1.00
2019-04-22T20:56:56.338Z,1.00
2019-04-22T20:59:30.078Z,1.00
2019-04-22T21:01:57.918Z,1.00
2019-04-22T21:04:27.789Z,1.00
2019-04-22T21:07:01.914Z,1.00
2019-04-22T21:09:33.369Z,1.00
2019-04-22T21:12:02.227Z,1.00
2019-04-22T21:14:36.419Z,1.00
2019-04-22T21:17:06.718Z,1.00
2019-04-22T21:22:08.024Z,1.00
2019-04-22T21:24:36.096Z,1.00
2019-04-22T21:27:13.978Z,1.00
2019-04-22T21:29:37.625Z,1.00
2019-04-22T21:32:15.652Z,1.00
2019-04-22T21:34:48.433Z,1.00
2019-04-22T21:37:36.070Z,1.00
2019-04-22T21:39:39.938Z,1.00
2019-04-22T21:42:14.313Z,1.00
2019-04-22T21:44:38.370Z,1.00
2019-04-22T21:47:20.601Z,1.00
2019-04-22T21:49:51.397Z,1.00
2019-04-22T21:52:16.908Z,1.00
2019-04-22T21:54:52.213Z,1.00
2019-04-22T21:57:28.257Z,1.00
2019-04-22T22:00:01.285Z,1.00
2019-04-22T22:02:31.449Z,1.00
2019-04-22T22:04:55.272Z,1.00
2019-04-22T22:07:17.191Z,1.00
2019-04-22T22:10:01.450Z,1.00
2019-04-22T22:12:39.702Z,1.00
2019-04-22T22:15:04.168Z,1.00
2019-04-22T22:17:31.467Z,1.00
2019-04-22T22:20:02.813Z,1.00
2019-04-22T22:22:46.635Z,1.00
2019-04-22T22:25:10.557Z,1.00
2019-04-22T22:27:37.569Z,1.00
2019-04-22T22:30:33.629Z,1.00
2019-04-22T22:32:43.752Z,1.00
2019-04-22T22:35:10.111Z,1.00
2019-04-22T22:37:31.179Z,1.00
2019-04-22T22:39:58.009Z,1.00
2019-04-22T22:42:30.314Z,1.00
2019-04-22T22:45:06.576Z,1.00
2019-04-22T22:47:42.122Z,1.00
2019-04-22T22:50:15.942Z,1.00
2019-04-22T22:52:58.986Z,1.00
2019-04-22T22:55:20.140Z,1.00
2019-04-22T22:57:46.035Z,1.00
2019-04-22T23:00:15.906Z,1.00
2019-04-22T23:03:00.735Z,1.00
2019-04-22T23:05:23.893Z,1.00
2019-04-22T23:07:55.453Z,1.00
2019-04-22T23:10:17.859Z,1.00
2019-04-22T23:12:58.179Z,1.00
2019-04-22T23:15:21.756Z,1.00
2019-04-22T23:17:35.390Z,1.00
2019-04-22T23:20:04.911Z,1.00
2019-04-22T23:23:00.903Z,1.00
2019-04-22T23:25:27.397Z,1.00
2019-04-22T23:27:52.481Z,1.00
2019-04-22T23:30:53.132Z,1.00
2019-04-22T23:33:37.473Z,1.00
2019-04-22T23:36:13.763Z,1.00
2019-04-22T23:38:50.798Z,1.00
2019-04-22T23:41:47.649Z,1.00
2019-04-22T23:44:14.290Z,1.00
2019-04-22T23:46:41.102Z,1.00
2019-04-22T23:49:11.903Z,1.00
2019-04-22T23:51:55.646Z,1.00
2019-04-22T23:54:25.744Z,1.00
2019-04-22T23:56:49.331Z,1.00
2019-04-22T23:59:38.598Z,1.00
